createdAt,value
2017-07-08T00:01:08.451Z,56.07
2017-07-08T00:03:36.837Z,56.07
2017-07-08T00:06:05.107Z,59.50
2017-07-08T00:08:33.492Z,60.47
2017-07-08T00:11:01.828Z,63.27
2017-07-08T00:13:30.093Z,65.27
2017-07-08T00:15:58.485Z,62.40
2017-07-08T00:18:26.870Z,63.30
2017-07-08T00:20:55.167Z,71.33
2017-07-08T00:23:24.243Z,69.90
2017-07-08T00:25:52.634Z,68.63
2017-07-08T00:28:21.009Z,64.10
2017-07-08T00:30:49.380Z,73.47
2017-07-08T00:33:17.669Z,67.03
2017-07-08T00:35:46.038Z,72.93
2017-07-08T00:38:14.345Z,79.50
2017-07-08T00:40:42.617Z,72.20
2017-07-08T00:43:10.998Z,72.20
2017-07-08T00:45:39.290Z,71.03
2017-07-08T00:48:07.685Z,69.97
2017-07-08T00:50:36.013Z,66.03
2017-07-08T00:53:04.311Z,68.00
2017-07-08T00:55:32.614Z,69.17
2017-07-08T00:58:00.884Z,71.80
2017-07-08T01:00:29.952Z,68.13
2017-07-08T01:02:58.430Z,68.80
2017-07-08T01:05:26.700Z,70.50
2017-07-08T01:07:55.098Z,69.03
2017-07-08T01:10:23.478Z,70.83
2017-07-08T01:12:51.841Z,71.20
2017-07-08T01:15:20.120Z,72.63
2017-07-08T01:17:48.520Z,65.77
2017-07-08T01:20:16.887Z,65.50
2017-07-08T01:22:46.071Z,68.20
2017-07-08T01:25:14.452Z,64.00
2017-07-08T01:27:42.719Z,65.30
2017-07-08T01:30:11.021Z,66.50
2017-07-08T01:32:40.099Z,62.87
2017-07-08T01:35:08.469Z,64.40
2017-07-08T01:37:36.829Z,65.20
2017-07-08T01:40:05.154Z,68.50
2017-07-08T01:42:33.539Z,67.50
2017-07-08T01:45:01.830Z,69.03
2017-07-08T01:47:30.189Z,69.57
2017-07-08T01:49:58.587Z,67.87
2017-07-08T01:52:26.958Z,72.23
2017-07-08T01:54:56.002Z,66.07
2017-07-08T01:57:24.314Z,68.60
2017-07-08T01:59:52.582Z,69.50
2017-07-08T02:02:20.945Z,72.00
2017-07-08T02:04:49.238Z,67.40
2017-07-08T02:07:17.501Z,74.40
2017-07-08T02:09:45.787Z,85.40
2017-07-08T02:12:14.071Z,74.67
2017-07-08T02:14:42.470Z,67.10
2017-07-08T02:17:10.741Z,70.03
2017-07-08T02:19:39.212Z,66.43
2017-07-08T02:22:08.266Z,67.67
2017-07-08T02:24:36.546Z,65.33
2017-07-08T02:27:04.942Z,66.33
2017-07-08T02:29:33.204Z,68.53
2017-07-08T02:32:01.529Z,65.63
2017-07-08T02:34:30.628Z,62.40
2017-07-08T02:36:58.970Z,61.37
2017-07-08T02:39:27.263Z,65.17
2017-07-08T02:41:56.297Z,64.73
2017-07-08T02:44:24.594Z,60.40
2017-07-08T02:46:52.898Z,62.70
2017-07-08T02:49:21.194Z,62.37
2017-07-08T02:51:50.215Z,63.53
2017-07-08T02:54:18.542Z,59.40
2017-07-08T02:56:46.921Z,52.13
2017-07-08T02:59:15.205Z,51.73
2017-07-08T03:01:43.469Z,49.30
2017-07-08T03:04:11.860Z,51.33
2017-07-08T03:06:40.151Z,52.17
2017-07-08T03:09:08.423Z,48.70
2017-07-08T03:11:36.722Z,49.40
2017-07-08T03:14:05.795Z,50.93
2017-07-08T03:16:34.077Z,42.53
2017-07-08T03:19:02.349Z,44.37
2017-07-08T03:21:30.713Z,40.47
2017-07-08T03:23:58.980Z,41.13
2017-07-08T03:26:27.251Z,37.70
2017-07-08T03:28:55.545Z,40.50
2017-07-08T03:31:23.921Z,39.80
2017-07-08T03:33:52.209Z,46.53
2017-07-08T03:36:20.476Z,43.90
2017-07-08T03:38:48.782Z,39.97
2017-07-08T03:41:17.818Z,37.50
2017-07-08T03:43:47.968Z,37.97
2017-07-08T03:46:16.353Z,37.50
2017-07-08T03:48:44.621Z,36.50
2017-07-08T03:51:12.995Z,37.30
2017-07-08T03:53:41.282Z,36.77
2017-07-08T03:56:09.662Z,38.30
2017-07-08T03:58:37.945Z,36.17
2017-07-08T04:01:06.322Z,37.70
2017-07-08T04:03:34.615Z,34.87
2017-07-08T04:06:02.977Z,36.57
2017-07-08T04:08:31.322Z,37.20
2017-07-08T04:11:00.320Z,36.77
2017-07-08T04:13:28.612Z,37.80
2017-07-08T04:15:56.894Z,38.43
2017-07-08T04:18:25.185Z,37.67
2017-07-08T04:20:53.558Z,37.40
2017-07-08T04:23:21.937Z,37.37
2017-07-08T04:25:50.232Z,37.53
2017-07-08T04:28:18.515Z,36.20
2017-07-08T04:30:47.561Z,36.70
2017-07-08T04:33:15.874Z,37.90
2017-07-08T04:35:44.265Z,39.57
2017-07-08T04:38:12.529Z,35.97
2017-07-08T04:40:40.806Z,38.20
2017-07-08T04:43:09.184Z,36.70
2017-07-08T04:45:37.449Z,35.90
2017-07-08T04:48:05.852Z,37.97
2017-07-08T04:50:34.115Z,36.90
2017-07-08T04:53:02.474Z,35.40
2017-07-08T04:55:31.555Z,39.10
2017-07-08T04:58:00.652Z,38.77
2017-07-08T05:00:29.744Z,38.53
2017-07-08T05:02:58.118Z,42.33
2017-07-08T05:05:26.403Z,42.70
2017-07-08T05:07:54.776Z,45.03
2017-07-08T05:10:23.059Z,48.50
2017-07-08T05:12:52.128Z,49.87
2017-07-08T05:15:20.391Z,52.13
2017-07-08T05:17:48.674Z,55.00
2017-07-08T05:20:16.999Z,55.83
2017-07-08T05:22:45.336Z,58.33
2017-07-08T05:25:13.716Z,58.10
2017-07-08T05:27:42.048Z,59.03
2017-07-08T05:30:10.432Z,58.33
2017-07-08T05:32:38.724Z,53.33
2017-07-08T05:35:07.766Z,56.70
2017-07-08T05:37:36.053Z,53.67
2017-07-08T05:40:05.102Z,54.70
2017-07-08T05:42:33.408Z,54.50
2017-07-08T05:45:01.687Z,48.70
2017-07-08T05:47:30.000Z,45.90
2017-07-08T05:49:59.037Z,43.70
2017-07-08T05:52:27.354Z,41.20
2017-07-08T05:54:55.725Z,41.20
2017-07-08T05:57:24.002Z,35.50
2017-07-08T05:59:52.294Z,37.90
2017-07-08T06:02:21.377Z,40.00
2017-07-08T06:04:49.696Z,36.00
2017-07-08T06:07:17.969Z,38.90
2017-07-08T06:09:46.506Z,36.10
2017-07-08T06:12:14.897Z,37.37
2017-07-08T06:14:43.171Z,37.73
2017-07-08T06:17:11.553Z,36.60
2017-07-08T06:19:39.820Z,37.10
2017-07-08T06:22:08.177Z,34.80
2017-07-08T06:24:36.574Z,36.27
2017-07-08T06:27:04.855Z,38.53
2017-07-08T06:29:33.240Z,38.30
2017-07-08T06:32:01.518Z,39.00
2017-07-08T06:34:29.807Z,36.90
2017-07-08T06:36:58.902Z,37.00
2017-07-08T06:39:27.278Z,35.70
2017-07-08T06:41:55.591Z,36.47
2017-07-08T06:44:23.865Z,39.37
2017-07-08T06:46:52.130Z,40.97
2017-07-08T06:49:20.437Z,38.60
2017-07-08T06:51:48.750Z,39.80
2017-07-08T06:54:17.069Z,39.47
2017-07-08T06:56:45.337Z,42.07
2017-07-08T06:59:13.677Z,43.00
2017-07-08T07:01:41.983Z,41.10
2017-07-08T07:04:11.010Z,42.80
2017-07-08T07:06:39.297Z,42.00
2017-07-08T07:09:07.600Z,41.30
2017-07-08T07:11:35.892Z,39.77
2017-07-08T07:14:04.955Z,42.47
2017-07-08T07:16:33.278Z,45.53
2017-07-08T07:19:02.328Z,47.13
2017-07-08T07:21:30.633Z,46.50
2017-07-08T07:23:59.009Z,46.70
2017-07-08T07:26:27.389Z,47.53
2017-07-08T07:28:55.778Z,47.80
2017-07-08T07:31:24.154Z,47.30
2017-07-08T07:33:52.526Z,47.07
2017-07-08T07:36:20.847Z,45.07
2017-07-08T07:38:49.221Z,42.63
2017-07-08T07:41:17.620Z,47.20
2017-07-08T07:43:45.981Z,44.97
2017-07-08T07:46:14.283Z,44.93
2017-07-08T07:48:43.358Z,43.90
2017-07-08T07:51:11.626Z,46.20
2017-07-08T07:53:39.909Z,47.20
2017-07-08T07:56:08.353Z,43.23
2017-07-08T07:58:36.658Z,44.17
2017-07-08T08:01:05.035Z,44.13
2017-07-08T08:03:33.522Z,42.83
2017-07-08T08:06:01.813Z,40.40
2017-07-08T08:08:30.097Z,40.30
2017-07-08T08:10:58.469Z,39.27
2017-07-08T08:13:26.884Z,41.53
2017-07-08T08:15:56.008Z,40.50
2017-07-08T08:18:24.306Z,39.90
2017-07-08T08:20:52.793Z,35.80
2017-07-08T08:23:21.172Z,32.47
2017-07-08T08:25:49.552Z,31.50
2017-07-08T08:28:17.985Z,30.90
2017-07-08T08:30:46.277Z,29.47
2017-07-08T08:33:14.554Z,28.77
2017-07-08T08:35:42.844Z,26.27
2017-07-08T08:38:11.155Z,24.17
2017-07-08T08:40:39.536Z,23.47
2017-07-08T08:43:07.923Z,24.83
2017-07-08T08:45:36.306Z,23.93
2017-07-08T08:48:04.624Z,24.30
2017-07-08T08:50:32.892Z,24.13
2017-07-08T08:53:01.198Z,21.57
2017-07-08T08:55:29.473Z,22.20
2017-07-08T08:57:57.910Z,22.23
2017-07-08T09:00:26.976Z,22.13
2017-07-08T09:02:55.251Z,20.23
2017-07-08T09:05:23.555Z,20.17
2017-07-08T09:07:52.604Z,17.87
2017-07-08T09:10:20.914Z,17.73
2017-07-08T09:12:49.282Z,19.53
2017-07-08T09:15:17.562Z,20.00
2017-07-08T09:17:45.853Z,19.57
2017-07-08T09:20:14.941Z,19.17
2017-07-08T09:22:43.372Z,17.90
2017-07-08T09:25:12.377Z,17.33
2017-07-08T09:27:40.644Z,16.23
2017-07-08T09:30:08.949Z,14.53
2017-07-08T09:32:37.221Z,16.17
2017-07-08T09:35:05.616Z,15.80
2017-07-08T09:37:34.007Z,17.60
2017-07-08T09:40:02.367Z,16.73
2017-07-08T09:42:30.762Z,14.67
2017-07-08T09:44:59.129Z,13.03
2017-07-08T09:47:27.513Z,10.40
2017-07-08T09:49:55.789Z,9.40
2017-07-08T09:52:24.061Z,10.30
2017-07-08T09:54:52.344Z,10.17
2017-07-08T09:57:20.615Z,9.20
2017-07-08T09:59:48.997Z,10.30
2017-07-08T10:02:17.369Z,11.20
2017-07-08T10:04:45.652Z,10.67
2017-07-08T10:07:13.946Z,10.23
2017-07-08T10:09:42.328Z,12.07
2017-07-08T10:12:10.704Z,12.73
2017-07-08T10:14:39.067Z,11.90
2017-07-08T10:17:07.333Z,11.63
2017-07-08T10:19:35.624Z,11.63
2017-07-08T10:22:04.000Z,12.80
2017-07-08T10:24:33.006Z,13.73
2017-07-08T10:27:01.282Z,12.20
2017-07-08T10:29:29.756Z,13.50
2017-07-08T10:31:58.142Z,13.40
2017-07-08T10:34:26.430Z,13.70
2017-07-08T10:36:55.497Z,13.30
2017-07-08T10:39:23.748Z,16.13
2017-07-08T10:41:52.084Z,15.17
2017-07-08T10:44:21.145Z,13.50
2017-07-08T10:46:49.431Z,13.40
2017-07-08T10:49:17.723Z,12.63
2017-07-08T10:51:46.007Z,13.03
2017-07-08T10:54:14.401Z,11.37
2017-07-08T10:56:42.664Z,12.83
2017-07-08T10:59:10.962Z,11.40
2017-07-08T11:01:39.244Z,11.87
2017-07-08T11:04:07.534Z,11.57
2017-07-08T11:06:36.604Z,12.10
2017-07-08T11:09:04.862Z,11.87
2017-07-08T11:11:33.170Z,11.17
2017-07-08T11:14:01.541Z,10.73
2017-07-08T11:16:29.810Z,10.70
2017-07-08T11:18:58.101Z,9.30
2017-07-08T11:21:26.356Z,9.50
2017-07-08T11:23:54.753Z,8.90
2017-07-08T11:26:23.014Z,8.20
2017-07-08T11:28:51.411Z,8.83
2017-07-08T11:31:19.685Z,9.57
2017-07-08T11:33:47.953Z,9.90
2017-07-08T11:36:16.333Z,8.50
2017-07-08T11:38:44.581Z,10.40
2017-07-08T11:41:12.866Z,9.57
2017-07-08T11:43:41.128Z,10.47
2017-07-08T11:46:09.427Z,8.73
2017-07-08T11:48:37.700Z,10.00
2017-07-08T11:51:06.077Z,9.80
2017-07-08T11:53:34.341Z,8.53
2017-07-08T11:56:02.616Z,9.57
2017-07-08T11:58:30.888Z,9.30
2017-07-08T12:00:59.202Z,9.20
2017-07-08T12:03:27.473Z,9.97
2017-07-08T12:05:55.762Z,10.03
2017-07-08T12:08:24.032Z,9.30
2017-07-08T12:10:52.428Z,10.63
2017-07-08T12:13:20.794Z,9.10
2017-07-08T12:15:49.062Z,9.93
2017-07-08T12:18:17.374Z,11.30
2017-07-08T12:20:46.414Z,9.00
2017-07-08T12:23:14.711Z,10.17
2017-07-08T12:25:43.001Z,8.83
2017-07-08T12:28:11.359Z,8.73
2017-07-08T12:30:39.631Z,7.97
2017-07-08T12:33:07.905Z,7.80
2017-07-08T12:35:36.191Z,7.77
2017-07-08T12:38:04.470Z,7.43
2017-07-08T12:40:32.754Z,8.40
2017-07-08T12:43:01.141Z,7.57
2017-07-08T12:45:29.419Z,8.70
2017-07-08T12:47:57.718Z,7.63
2017-07-08T12:50:26.790Z,7.23
2017-07-08T12:52:55.045Z,7.50
2017-07-08T12:55:23.434Z,7.97
2017-07-08T12:57:51.689Z,8.40
2017-07-08T13:00:19.967Z,8.37
2017-07-08T13:02:48.282Z,7.43
2017-07-08T13:05:16.556Z,8.57
2017-07-08T13:07:45.624Z,7.87
2017-07-08T13:10:13.911Z,8.47
2017-07-08T13:12:42.239Z,7.97
2017-07-08T13:15:10.547Z,8.33
2017-07-08T13:17:38.844Z,7.43
2017-07-08T13:20:07.218Z,7.17
2017-07-08T13:22:35.654Z,7.20
2017-07-08T13:25:04.062Z,6.97
2017-07-08T13:27:32.392Z,7.27
2017-07-08T13:30:00.681Z,7.10
2017-07-08T13:32:28.958Z,7.50
2017-07-08T13:34:57.242Z,6.30
2017-07-08T13:37:25.614Z,6.90
2017-07-08T13:39:53.901Z,6.77
2017-07-08T13:42:22.264Z,6.23
2017-07-08T13:44:50.646Z,6.30
2017-07-08T13:47:18.909Z,6.57
2017-07-08T13:49:47.302Z,5.87
2017-07-08T13:52:15.577Z,6.60
2017-07-08T13:54:43.962Z,6.63
2017-07-08T13:57:12.233Z,6.23
2017-07-08T13:59:40.612Z,6.30
2017-07-08T14:02:08.975Z,5.60
2017-07-08T14:04:37.248Z,6.13
2017-07-08T14:07:05.525Z,6.90
2017-07-08T14:09:33.798Z,5.60
2017-07-08T14:12:02.074Z,6.17
2017-07-08T14:14:30.354Z,5.80
2017-07-08T14:16:58.621Z,5.77
2017-07-08T14:19:26.877Z,5.47
2017-07-08T14:21:55.304Z,6.27
2017-07-08T14:24:23.579Z,5.73
2017-07-08T14:26:52.062Z,5.83
2017-07-08T14:29:20.360Z,6.00
2017-07-08T14:31:49.440Z,5.63
2017-07-08T14:34:17.718Z,5.60
2017-07-08T14:36:46.093Z,6.40
2017-07-08T14:39:14.470Z,5.93
2017-07-08T14:41:42.745Z,6.03
2017-07-08T14:44:11.139Z,5.50
2017-07-08T14:46:39.396Z,5.93
2017-07-08T14:49:07.688Z,5.50
2017-07-08T14:51:35.944Z,5.57
2017-07-08T14:54:04.258Z,5.17
2017-07-08T14:56:33.284Z,5.07
2017-07-08T14:59:01.608Z,4.47
2017-07-08T15:01:29.893Z,5.07
2017-07-08T15:03:58.261Z,5.00
2017-07-08T15:06:26.529Z,5.10
2017-07-08T15:08:54.817Z,4.57
2017-07-08T15:11:23.092Z,4.70
2017-07-08T15:13:51.487Z,4.60
2017-07-08T15:16:19.748Z,4.10
2017-07-08T15:18:48.143Z,4.10
2017-07-08T15:21:16.521Z,4.40
2017-07-08T15:23:44.905Z,4.20
2017-07-08T15:26:13.278Z,4.03
2017-07-08T15:28:41.567Z,4.03
2017-07-08T15:31:09.926Z,6.00
2017-07-08T15:33:38.315Z,7.47
2017-07-08T15:36:06.573Z,4.17
2017-07-08T15:38:34.851Z,3.67
2017-07-08T15:41:03.245Z,4.10
2017-07-08T15:43:31.526Z,7.93
2017-07-08T15:45:59.810Z,5.57
2017-07-08T15:48:28.851Z,8.50
2017-07-08T15:50:57.135Z,8.67
2017-07-08T15:53:25.408Z,5.30
2017-07-08T15:55:53.717Z,6.33
2017-07-08T15:58:21.999Z,5.80
2017-07-08T16:00:50.377Z,4.70
2017-07-08T16:03:18.625Z,5.00
2017-07-08T16:05:46.895Z,7.07
2017-07-08T16:08:15.167Z,7.20
2017-07-08T16:10:43.455Z,4.27
2017-07-08T16:13:11.725Z,4.27
2017-07-08T16:15:40.017Z,4.80
2017-07-08T16:18:08.333Z,4.10
2017-07-08T16:20:37.427Z,8.40
2017-07-08T16:23:05.706Z,4.80
2017-07-08T16:25:34.066Z,5.03
2017-07-08T16:28:02.359Z,4.00
2017-07-08T16:30:30.725Z,8.73
2017-07-08T16:32:59.009Z,5.03
2017-07-08T16:35:27.282Z,5.40
2017-07-08T16:37:55.553Z,4.40
2017-07-08T16:40:23.826Z,9.47
2017-07-08T16:42:52.116Z,6.37
2017-07-08T16:45:20.477Z,6.63
2017-07-08T16:47:48.860Z,5.70
2017-07-08T16:50:17.242Z,7.50
2017-07-08T16:52:45.610Z,7.20
2017-07-08T16:55:13.869Z,5.73
2017-07-08T16:57:42.290Z,6.83
2017-07-08T17:00:10.605Z,7.13
2017-07-08T17:02:38.865Z,5.37
2017-07-08T17:05:07.920Z,6.20
2017-07-08T17:07:36.188Z,6.50
2017-07-08T17:10:04.448Z,6.50
2017-07-08T17:12:32.722Z,6.90
2017-07-08T17:15:01.052Z,6.37
2017-07-08T17:17:29.301Z,6.90
2017-07-08T17:19:57.580Z,8.23
2017-07-08T17:22:25.941Z,6.53
2017-07-08T17:24:54.262Z,5.90
2017-07-08T17:27:23.286Z,6.43
2017-07-08T17:29:51.586Z,7.00
2017-07-08T17:32:19.882Z,6.83
2017-07-08T17:34:48.254Z,6.93
2017-07-08T17:37:16.524Z,6.40
2017-07-08T17:39:44.807Z,6.57
2017-07-08T17:42:13.188Z,6.90
2017-07-08T17:44:41.449Z,6.70
2017-07-08T17:47:09.732Z,7.50
2017-07-08T17:49:38.000Z,7.50
2017-07-08T17:52:06.701Z,8.20
2017-07-08T17:54:35.084Z,8.07
2017-07-08T17:57:03.360Z,7.13
2017-07-08T17:59:31.619Z,8.37
2017-07-08T18:01:59.923Z,7.70
2017-07-08T18:04:28.963Z,7.40
2017-07-08T18:06:57.258Z,8.00
2017-07-08T18:09:26.390Z,8.37
2017-07-08T18:11:54.729Z,8.10
2017-07-08T18:14:23.017Z,8.80
2017-07-08T18:16:52.199Z,7.90
2017-07-08T18:19:20.514Z,7.87
2017-07-08T18:21:48.793Z,7.30
2017-07-08T18:24:17.211Z,8.97
2017-07-08T18:26:45.476Z,8.20
2017-07-08T18:29:13.774Z,8.03
2017-07-08T18:31:42.051Z,13.87
2017-07-08T18:34:10.350Z,8.20
2017-07-08T18:36:39.410Z,8.80
2017-07-08T18:39:07.690Z,8.77
2017-07-08T18:41:36.004Z,8.20
2017-07-08T18:44:05.164Z,7.83
2017-07-08T18:46:33.423Z,7.23
2017-07-08T18:49:01.718Z,6.80
2017-07-08T18:51:30.101Z,7.73
2017-07-08T18:53:58.377Z,8.20
2017-07-08T18:56:26.858Z,7.60
2017-07-08T18:58:55.131Z,8.20
2017-07-08T19:01:23.398Z,7.77
2017-07-08T19:03:51.690Z,6.87
2017-07-08T19:06:19.959Z,7.37
2017-07-08T19:08:48.253Z,7.53
2017-07-08T19:11:16.621Z,6.90
2017-07-08T19:13:45.013Z,7.70
2017-07-08T19:16:13.285Z,6.83
2017-07-08T19:18:41.652Z,6.90
2017-07-08T19:21:09.919Z,7.30
2017-07-08T19:23:38.194Z,7.10
2017-07-08T19:26:06.486Z,6.90
2017-07-08T19:28:34.745Z,7.50
2017-07-08T19:31:03.029Z,6.90
2017-07-08T19:33:31.324Z,7.00
2017-07-08T19:35:59.684Z,7.40
2017-07-08T19:38:27.959Z,7.10
2017-07-08T19:40:56.243Z,7.50
2017-07-08T19:43:24.520Z,6.97
2017-07-08T19:45:52.793Z,7.30
2017-07-08T19:48:21.854Z,7.30
2017-07-08T19:50:50.871Z,7.43
2017-07-08T19:53:19.933Z,7.60
2017-07-08T19:55:48.223Z,7.47
2017-07-08T19:58:16.638Z,7.97
2017-07-08T20:00:45.667Z,8.23
2017-07-08T20:03:13.930Z,7.63
2017-07-08T20:05:42.211Z,7.57
2017-07-08T20:08:10.461Z,7.90
2017-07-08T20:10:39.523Z,8.20
2017-07-08T20:13:07.789Z,7.80
2017-07-08T20:15:36.092Z,8.00
2017-07-08T20:18:04.364Z,7.70
2017-07-08T20:20:32.628Z,8.40
2017-07-08T20:23:00.914Z,8.23
2017-07-08T20:25:29.169Z,8.43
2017-07-08T20:27:57.568Z,7.83
2017-07-08T20:30:25.942Z,8.57
2017-07-08T20:32:54.239Z,9.23
2017-07-08T20:35:23.317Z,8.90
2017-07-08T20:37:51.580Z,8.47
2017-07-08T20:40:19.859Z,9.67
2017-07-08T20:42:48.137Z,9.60
2017-07-08T20:45:16.437Z,9.63
2017-07-08T20:47:44.826Z,8.43
2017-07-08T20:50:13.156Z,8.77
2017-07-08T20:52:41.419Z,9.63
2017-07-08T20:55:10.493Z,8.90
2017-07-08T20:57:38.759Z,9.50
2017-07-08T21:00:07.041Z,9.63
2017-07-08T21:02:35.412Z,10.37
2017-07-08T21:05:03.713Z,10.63
2017-07-08T21:07:31.999Z,10.40
2017-07-08T21:10:01.040Z,10.83
2017-07-08T21:12:29.421Z,10.43
2017-07-08T21:14:57.717Z,11.70
2017-07-08T21:17:25.980Z,11.13
2017-07-08T21:19:54.382Z,12.20
2017-07-08T21:22:22.686Z,10.60
2017-07-08T21:24:51.750Z,12.47
2017-07-08T21:27:20.025Z,12.07
2017-07-08T21:29:48.401Z,10.87
2017-07-08T21:32:16.668Z,11.27
2017-07-08T21:34:44.936Z,11.20
2017-07-08T21:37:13.217Z,11.80
2017-07-08T21:39:41.522Z,12.00
2017-07-08T21:42:09.897Z,12.70
2017-07-08T21:44:38.187Z,11.87
2017-07-08T21:47:06.493Z,11.77
2017-07-08T21:49:34.774Z,11.83
2017-07-08T21:52:03.065Z,10.90
2017-07-08T21:54:31.360Z,10.97
2017-07-08T21:56:59.641Z,11.60
2017-07-08T21:59:28.046Z,11.27
2017-07-08T22:01:56.427Z,9.83
2017-07-08T22:04:24.726Z,9.80
2017-07-08T22:06:53.766Z,10.10
2017-07-08T22:09:22.061Z,9.27
2017-07-08T22:11:50.441Z,9.37
2017-07-08T22:14:18.738Z,8.73
2017-07-08T22:16:47.096Z,8.80
2017-07-08T22:19:15.385Z,9.73
2017-07-08T22:21:43.689Z,9.50
2017-07-08T22:24:12.764Z,8.97
2017-07-08T22:26:41.023Z,9.50
2017-07-08T22:29:09.301Z,10.67
2017-07-08T22:31:37.569Z,9.67
2017-07-08T22:34:05.965Z,9.80
2017-07-08T22:36:34.249Z,10.37
2017-07-08T22:39:02.520Z,10.00
2017-07-08T22:41:30.894Z,10.93
2017-07-08T22:43:59.271Z,10.10
2017-07-08T22:46:27.598Z,10.70
2017-07-08T22:48:55.920Z,11.20
2017-07-08T22:51:24.310Z,11.10
2017-07-08T22:53:52.583Z,10.97
2017-07-08T22:56:20.903Z,11.70
2017-07-08T22:58:49.965Z,11.10
2017-07-08T23:01:18.348Z,11.70
2017-07-08T23:03:46.632Z,12.97
2017-07-08T23:06:14.903Z,13.50
2017-07-08T23:08:43.286Z,12.40
2017-07-08T23:11:11.653Z,13.20
2017-07-08T23:13:39.945Z,11.80
2017-07-08T23:16:09.040Z,12.40
2017-07-08T23:18:37.345Z,13.70
2017-07-08T23:21:05.631Z,13.40
2017-07-08T23:23:33.888Z,13.70
2017-07-08T23:26:02.224Z,13.90
2017-07-08T23:28:30.497Z,13.60
2017-07-08T23:30:58.894Z,13.33
2017-07-08T23:33:27.162Z,12.70
2017-07-08T23:35:55.549Z,13.03
2017-07-08T23:38:23.825Z,13.23
2017-07-08T23:40:52.105Z,12.80
2017-07-08T23:43:20.478Z,13.27
2017-07-08T23:45:48.750Z,13.00
2017-07-08T23:48:17.138Z,12.93
2017-07-08T23:50:45.408Z,12.63
2017-07-08T23:53:13.814Z,12.10
2017-07-08T23:55:42.916Z,11.80
2017-07-08T23:58:11.999Z,11.70
